<?xml version="1.0" encoding="UTF-8" standalone="no" ?>
<gpx xmlns="http://www.topografix.com/GPX/1/1" xmlns:xsi="http://www.w3.org/2001/XMLSchema-instance" xsi:schemaLocation="http://www.topografix.com/GPX/1/1 http://www.topografix.com/GPX/1/1/gpx.xsd" version="1.1" creator="VisuGPX - https://www.visugpx.com">
  <metadata>
    <name>Loisirs &amp;amp; Découvertes à Celles 24600 (5)</name>
    <desc><![CDATA[Promenade autour de notre commune. accessible à tous]]></desc>
  </metadata>
  <trk>
    <name><![CDATA[Tracé 23 oct. 2016 14:00:40 Celles]]></name>
    <trkseg>
      <trkpt lat="45.29925" lon="0.41454">
        <ele>108</ele>
        <time>2016-10-23T12:03:07Z</time>
      </trkpt>
      <trkpt lat="45.29918" lon="0.41472">
        <ele>111</ele>
        <time>2016-10-23T12:03:44Z</time>
      </trkpt>
      <trkpt lat="45.29908" lon="0.4151">
        <ele>110</ele>
        <time>2016-10-23T12:04:13Z</time>
      </trkpt>
      <trkpt lat="45.2992" lon="0.41527">
        <ele>103</ele>
        <time>2016-10-23T12:04:51Z</time>
      </trkpt>
      <trkpt lat="45.2996" lon="0.41561">
        <ele>102</ele>
        <time>2016-10-23T12:05:20Z</time>
      </trkpt>
      <trkpt lat="45.29999" lon="0.41605">
        <ele>101</ele>
        <time>2016-10-23T12:05:50Z</time>
      </trkpt>
      <trkpt lat="45.30003" lon="0.41648">
        <ele>100</ele>
        <time>2016-10-23T12:06:20Z</time>
      </trkpt>
      <trkpt lat="45.29976" lon="0.41689">
        <ele>100</ele>
        <time>2016-10-23T12:06:49Z</time>
      </trkpt>
      <trkpt lat="45.29946" lon="0.41726">
        <ele>102</ele>
        <time>2016-10-23T12:07:19Z</time>
      </trkpt>
      <trkpt lat="45.29955" lon="0.41769">
        <ele>102</ele>
        <time>2016-10-23T12:07:48Z</time>
      </trkpt>
      <trkpt lat="45.29973" lon="0.41806">
        <ele>106</ele>
        <time>2016-10-23T12:08:17Z</time>
      </trkpt>
      <trkpt lat="45.2999" lon="0.41838">
        <ele>107</ele>
        <time>2016-10-23T12:08:46Z</time>
      </trkpt>
      <trkpt lat="45.30007" lon="0.41867">
        <ele>111</ele>
        <time>2016-10-23T12:09:15Z</time>
      </trkpt>
      <trkpt lat="45.30014" lon="0.41893">
        <ele>110</ele>
        <time>2016-10-23T12:09:44Z</time>
      </trkpt>
      <trkpt lat="45.3003" lon="0.41902">
        <ele>109</ele>
        <time>2016-10-23T12:10:28Z</time>
      </trkpt>
      <trkpt lat="45.30053" lon="0.41939">
        <ele>113</ele>
        <time>2016-10-23T12:10:58Z</time>
      </trkpt>
      <trkpt lat="45.3008" lon="0.41957">
        <ele>116</ele>
        <time>2016-10-23T12:11:28Z</time>
      </trkpt>
      <trkpt lat="45.30107" lon="0.41991">
        <ele>109</ele>
        <time>2016-10-23T12:11:57Z</time>
      </trkpt>
      <trkpt lat="45.30129" lon="0.42037">
        <ele>108</ele>
        <time>2016-10-23T12:12:27Z</time>
      </trkpt>
      <trkpt lat="45.30146" lon="0.42077">
        <ele>111</ele>
        <time>2016-10-23T12:12:57Z</time>
      </trkpt>
      <trkpt lat="45.30166" lon="0.42127">
        <ele>110</ele>
        <time>2016-10-23T12:13:26Z</time>
      </trkpt>
      <trkpt lat="45.30191" lon="0.42184">
        <ele>114</ele>
        <time>2016-10-23T12:13:55Z</time>
      </trkpt>
      <trkpt lat="45.30213" lon="0.42237">
        <ele>120</ele>
        <time>2016-10-23T12:14:25Z</time>
      </trkpt>
      <trkpt lat="45.30234" lon="0.4228">
        <ele>117</ele>
        <time>2016-10-23T12:14:54Z</time>
      </trkpt>
      <trkpt lat="45.30246" lon="0.42322">
        <ele>115</ele>
        <time>2016-10-23T12:15:23Z</time>
      </trkpt>
      <trkpt lat="45.30265" lon="0.42372">
        <ele>116</ele>
        <time>2016-10-23T12:15:53Z</time>
      </trkpt>
      <trkpt lat="45.30271" lon="0.42418">
        <ele>119</ele>
        <time>2016-10-23T12:16:22Z</time>
      </trkpt>
      <trkpt lat="45.30268" lon="0.42474">
        <ele>115</ele>
        <time>2016-10-23T12:16:52Z</time>
      </trkpt>
      <trkpt lat="45.30276" lon="0.42528">
        <ele>117</ele>
        <time>2016-10-23T12:17:21Z</time>
      </trkpt>
      <trkpt lat="45.30295" lon="0.42553">
        <ele>117</ele>
        <time>2016-10-23T12:17:50Z</time>
      </trkpt>
      <trkpt lat="45.30322" lon="0.42601">
        <ele>119</ele>
        <time>2016-10-23T12:18:19Z</time>
      </trkpt>
      <trkpt lat="45.30338" lon="0.42645">
        <ele>123</ele>
        <time>2016-10-23T12:18:49Z</time>
      </trkpt>
      <trkpt lat="45.30361" lon="0.42683">
        <ele>122</ele>
        <time>2016-10-23T12:19:18Z</time>
      </trkpt>
      <trkpt lat="45.30394" lon="0.42701">
        <ele>122</ele>
        <time>2016-10-23T12:19:47Z</time>
      </trkpt>
      <trkpt lat="45.3042" lon="0.42725">
        <ele>124</ele>
        <time>2016-10-23T12:20:17Z</time>
      </trkpt>
      <trkpt lat="45.30441" lon="0.42756">
        <ele>126</ele>
        <time>2016-10-23T12:20:47Z</time>
      </trkpt>
      <trkpt lat="45.30469" lon="0.42791">
        <ele>126</ele>
        <time>2016-10-23T12:21:16Z</time>
      </trkpt>
      <trkpt lat="45.30489" lon="0.42822">
        <ele>130</ele>
        <time>2016-10-23T12:21:45Z</time>
      </trkpt>
      <trkpt lat="45.30518" lon="0.42851">
        <ele>129</ele>
        <time>2016-10-23T12:22:14Z</time>
      </trkpt>
      <trkpt lat="45.3055" lon="0.4287">
        <ele>129</ele>
        <time>2016-10-23T12:22:44Z</time>
      </trkpt>
      <trkpt lat="45.30585" lon="0.4289">
        <ele>127</ele>
        <time>2016-10-23T12:23:13Z</time>
      </trkpt>
      <trkpt lat="45.30624" lon="0.42899">
        <ele>120</ele>
        <time>2016-10-23T12:23:42Z</time>
      </trkpt>
      <trkpt lat="45.30655" lon="0.4291">
        <ele>119</ele>
        <time>2016-10-23T12:24:11Z</time>
      </trkpt>
      <trkpt lat="45.30673" lon="0.42909">
        <ele>120</ele>
        <time>2016-10-23T12:24:40Z</time>
      </trkpt>
      <trkpt lat="45.30689" lon="0.429">
        <ele>114</ele>
        <time>2016-10-23T12:26:05Z</time>
      </trkpt>
      <trkpt lat="45.30711" lon="0.42884">
        <ele>116</ele>
        <time>2016-10-23T12:26:35Z</time>
      </trkpt>
      <trkpt lat="45.30733" lon="0.42863">
        <ele>115</ele>
        <time>2016-10-23T12:27:04Z</time>
      </trkpt>
      <trkpt lat="45.30761" lon="0.42841">
        <ele>120</ele>
        <time>2016-10-23T12:27:34Z</time>
      </trkpt>
      <trkpt lat="45.30781" lon="0.42802">
        <ele>123</ele>
        <time>2016-10-23T12:28:03Z</time>
      </trkpt>
      <trkpt lat="45.3079" lon="0.42762">
        <ele>124</ele>
        <time>2016-10-23T12:28:32Z</time>
      </trkpt>
      <trkpt lat="45.30803" lon="0.4273">
        <ele>128</ele>
        <time>2016-10-23T12:29:02Z</time>
      </trkpt>
      <trkpt lat="45.30818" lon="0.427">
        <ele>134</ele>
        <time>2016-10-23T12:29:31Z</time>
      </trkpt>
      <trkpt lat="45.30835" lon="0.42675">
        <ele>142</ele>
        <time>2016-10-23T12:30:00Z</time>
      </trkpt>
      <trkpt lat="45.30849" lon="0.4265">
        <ele>142</ele>
        <time>2016-10-23T12:30:29Z</time>
      </trkpt>
      <trkpt lat="45.30865" lon="0.42627">
        <ele>147</ele>
        <time>2016-10-23T12:30:58Z</time>
      </trkpt>
      <trkpt lat="45.30883" lon="0.42601">
        <ele>150</ele>
        <time>2016-10-23T12:31:27Z</time>
      </trkpt>
      <trkpt lat="45.30901" lon="0.42578">
        <ele>156</ele>
        <time>2016-10-23T12:31:57Z</time>
      </trkpt>
      <trkpt lat="45.30917" lon="0.42555">
        <ele>158</ele>
        <time>2016-10-23T12:32:26Z</time>
      </trkpt>
      <trkpt lat="45.30937" lon="0.42522">
        <ele>161</ele>
        <time>2016-10-23T12:32:56Z</time>
      </trkpt>
      <trkpt lat="45.30953" lon="0.42493">
        <ele>165</ele>
        <time>2016-10-23T12:33:25Z</time>
      </trkpt>
      <trkpt lat="45.30971" lon="0.42454">
        <ele>168</ele>
        <time>2016-10-23T12:33:54Z</time>
      </trkpt>
      <trkpt lat="45.30992" lon="0.42427">
        <ele>170</ele>
        <time>2016-10-23T12:34:23Z</time>
      </trkpt>
      <trkpt lat="45.31018" lon="0.4241">
        <ele>170</ele>
        <time>2016-10-23T12:34:52Z</time>
      </trkpt>
      <trkpt lat="45.31049" lon="0.42409">
        <ele>172</ele>
        <time>2016-10-23T12:35:22Z</time>
      </trkpt>
      <trkpt lat="45.31082" lon="0.42411">
        <ele>171</ele>
        <time>2016-10-23T12:35:51Z</time>
      </trkpt>
      <trkpt lat="45.31114" lon="0.42414">
        <ele>170</ele>
        <time>2016-10-23T12:36:20Z</time>
      </trkpt>
      <trkpt lat="45.31147" lon="0.42423">
        <ele>169</ele>
        <time>2016-10-23T12:36:49Z</time>
      </trkpt>
      <trkpt lat="45.31176" lon="0.42442">
        <ele>168</ele>
        <time>2016-10-23T12:37:18Z</time>
      </trkpt>
      <trkpt lat="45.31208" lon="0.42458">
        <ele>168</ele>
        <time>2016-10-23T12:37:48Z</time>
      </trkpt>
      <trkpt lat="45.31239" lon="0.42473">
        <ele>169</ele>
        <time>2016-10-23T12:38:17Z</time>
      </trkpt>
      <trkpt lat="45.31272" lon="0.42486">
        <ele>166</ele>
        <time>2016-10-23T12:38:46Z</time>
      </trkpt>
      <trkpt lat="45.31306" lon="0.42495">
        <ele>168</ele>
        <time>2016-10-23T12:39:16Z</time>
      </trkpt>
      <trkpt lat="45.31336" lon="0.42508">
        <ele>170</ele>
        <time>2016-10-23T12:39:46Z</time>
      </trkpt>
      <trkpt lat="45.31367" lon="0.42516">
        <ele>171</ele>
        <time>2016-10-23T12:40:15Z</time>
      </trkpt>
      <trkpt lat="45.31397" lon="0.42516">
        <ele>170</ele>
        <time>2016-10-23T12:40:44Z</time>
      </trkpt>
      <trkpt lat="45.31427" lon="0.42516">
        <ele>171</ele>
        <time>2016-10-23T12:41:13Z</time>
      </trkpt>
      <trkpt lat="45.31459" lon="0.42516">
        <ele>173</ele>
        <time>2016-10-23T12:41:42Z</time>
      </trkpt>
      <trkpt lat="45.31489" lon="0.42515">
        <ele>173</ele>
        <time>2016-10-23T12:42:11Z</time>
      </trkpt>
      <trkpt lat="45.31521" lon="0.42516">
        <ele>175</ele>
        <time>2016-10-23T12:42:40Z</time>
      </trkpt>
      <trkpt lat="45.31552" lon="0.42518">
        <ele>176</ele>
        <time>2016-10-23T12:43:09Z</time>
      </trkpt>
      <trkpt lat="45.31587" lon="0.42512">
        <ele>178</ele>
        <time>2016-10-23T12:43:38Z</time>
      </trkpt>
      <trkpt lat="45.31631" lon="0.42498">
        <ele>181</ele>
        <time>2016-10-23T12:44:07Z</time>
      </trkpt>
      <trkpt lat="45.31672" lon="0.42478">
        <ele>185</ele>
        <time>2016-10-23T12:44:36Z</time>
      </trkpt>
      <trkpt lat="45.31709" lon="0.42467">
        <ele>191</ele>
        <time>2016-10-23T12:45:05Z</time>
      </trkpt>
      <trkpt lat="45.31753" lon="0.42423">
        <ele>193</ele>
        <time>2016-10-23T12:45:35Z</time>
      </trkpt>
      <trkpt lat="45.31794" lon="0.4238">
        <ele>194</ele>
        <time>2016-10-23T12:46:04Z</time>
      </trkpt>
      <trkpt lat="45.31829" lon="0.42368">
        <ele>200</ele>
        <time>2016-10-23T12:46:33Z</time>
      </trkpt>
      <trkpt lat="45.31874" lon="0.42344">
        <ele>201</ele>
        <time>2016-10-23T12:47:02Z</time>
      </trkpt>
      <trkpt lat="45.31918" lon="0.42312">
        <ele>201</ele>
        <time>2016-10-23T12:47:31Z</time>
      </trkpt>
      <trkpt lat="45.31957" lon="0.42273">
        <ele>201</ele>
        <time>2016-10-23T12:48:01Z</time>
      </trkpt>
      <trkpt lat="45.31992" lon="0.42226">
        <ele>199</ele>
        <time>2016-10-23T12:48:30Z</time>
      </trkpt>
      <trkpt lat="45.32006" lon="0.42199">
        <ele>199</ele>
        <time>2016-10-23T12:48:59Z</time>
      </trkpt>
      <trkpt lat="45.32029" lon="0.42174">
        <ele>200</ele>
        <time>2016-10-23T12:49:29Z</time>
      </trkpt>
      <trkpt lat="45.32055" lon="0.42155">
        <ele>203</ele>
        <time>2016-10-23T12:49:58Z</time>
      </trkpt>
      <trkpt lat="45.3209" lon="0.42128">
        <ele>202</ele>
        <time>2016-10-23T12:50:27Z</time>
      </trkpt>
      <trkpt lat="45.32123" lon="0.42105">
        <ele>202</ele>
        <time>2016-10-23T12:50:56Z</time>
      </trkpt>
      <trkpt lat="45.32154" lon="0.42084">
        <ele>209</ele>
        <time>2016-10-23T12:51:26Z</time>
      </trkpt>
      <trkpt lat="45.3219" lon="0.42073">
        <ele>208</ele>
        <time>2016-10-23T12:51:55Z</time>
      </trkpt>
      <trkpt lat="45.32225" lon="0.42054">
        <ele>209</ele>
        <time>2016-10-23T12:52:25Z</time>
      </trkpt>
      <trkpt lat="45.32259" lon="0.42045">
        <ele>212</ele>
        <time>2016-10-23T12:52:54Z</time>
      </trkpt>
      <trkpt lat="45.32241" lon="0.42046">
        <ele>207</ele>
        <time>2016-10-23T12:57:29Z</time>
      </trkpt>
      <trkpt lat="45.32257" lon="0.42043">
        <ele>210</ele>
        <time>2016-10-23T12:58:18Z</time>
      </trkpt>
      <trkpt lat="45.32291" lon="0.42063">
        <ele>211</ele>
        <time>2016-10-23T12:58:48Z</time>
      </trkpt>
      <trkpt lat="45.32325" lon="0.42106">
        <ele>209</ele>
        <time>2016-10-23T12:59:17Z</time>
      </trkpt>
      <trkpt lat="45.32356" lon="0.42142">
        <ele>207</ele>
        <time>2016-10-23T12:59:46Z</time>
      </trkpt>
      <trkpt lat="45.32382" lon="0.42173">
        <ele>207</ele>
        <time>2016-10-23T13:00:15Z</time>
      </trkpt>
      <trkpt lat="45.32409" lon="0.422">
        <ele>205</ele>
        <time>2016-10-23T13:00:44Z</time>
      </trkpt>
      <trkpt lat="45.32436" lon="0.42233">
        <ele>202</ele>
        <time>2016-10-23T13:01:14Z</time>
      </trkpt>
      <trkpt lat="45.32458" lon="0.42266">
        <ele>201</ele>
        <time>2016-10-23T13:01:43Z</time>
      </trkpt>
      <trkpt lat="45.32489" lon="0.42291">
        <ele>199</ele>
        <time>2016-10-23T13:02:12Z</time>
      </trkpt>
      <trkpt lat="45.32512" lon="0.42327">
        <ele>196</ele>
        <time>2016-10-23T13:02:42Z</time>
      </trkpt>
      <trkpt lat="45.32509" lon="0.42367">
        <ele>202</ele>
        <time>2016-10-23T13:03:11Z</time>
      </trkpt>
      <trkpt lat="45.32492" lon="0.42408">
        <ele>202</ele>
        <time>2016-10-23T13:03:40Z</time>
      </trkpt>
      <trkpt lat="45.32477" lon="0.42452">
        <ele>199</ele>
        <time>2016-10-23T13:04:10Z</time>
      </trkpt>
      <trkpt lat="45.32466" lon="0.42498">
        <ele>197</ele>
        <time>2016-10-23T13:04:39Z</time>
      </trkpt>
      <trkpt lat="45.32458" lon="0.42545">
        <ele>193</ele>
        <time>2016-10-23T13:05:09Z</time>
      </trkpt>
      <trkpt lat="45.32439" lon="0.42585">
        <ele>193</ele>
        <time>2016-10-23T13:05:38Z</time>
      </trkpt>
      <trkpt lat="45.32425" lon="0.42622">
        <ele>192</ele>
        <time>2016-10-23T13:06:07Z</time>
      </trkpt>
      <trkpt lat="45.3241" lon="0.42669">
        <ele>190</ele>
        <time>2016-10-23T13:06:37Z</time>
      </trkpt>
      <trkpt lat="45.32389" lon="0.42703">
        <ele>186</ele>
        <time>2016-10-23T13:07:06Z</time>
      </trkpt>
      <trkpt lat="45.32365" lon="0.42739">
        <ele>186</ele>
        <time>2016-10-23T13:07:36Z</time>
      </trkpt>
      <trkpt lat="45.3234" lon="0.42775">
        <ele>181</ele>
        <time>2016-10-23T13:08:05Z</time>
      </trkpt>
      <trkpt lat="45.32312" lon="0.42806">
        <ele>179</ele>
        <time>2016-10-23T13:08:35Z</time>
      </trkpt>
      <trkpt lat="45.32284" lon="0.42833">
        <ele>175</ele>
        <time>2016-10-23T13:09:04Z</time>
      </trkpt>
      <trkpt lat="45.32259" lon="0.42865">
        <ele>172</ele>
        <time>2016-10-23T13:09:34Z</time>
      </trkpt>
      <trkpt lat="45.32233" lon="0.4289">
        <ele>172</ele>
        <time>2016-10-23T13:10:03Z</time>
      </trkpt>
      <trkpt lat="45.32209" lon="0.42923">
        <ele>169</ele>
        <time>2016-10-23T13:10:33Z</time>
      </trkpt>
      <trkpt lat="45.32193" lon="0.4296">
        <ele>170</ele>
        <time>2016-10-23T13:11:02Z</time>
      </trkpt>
      <trkpt lat="45.32183" lon="0.43012">
        <ele>161</ele>
        <time>2016-10-23T13:11:32Z</time>
      </trkpt>
      <trkpt lat="45.32175" lon="0.43055">
        <ele>156</ele>
        <time>2016-10-23T13:12:02Z</time>
      </trkpt>
      <trkpt lat="45.32164" lon="0.4309">
        <ele>152</ele>
        <time>2016-10-23T13:12:31Z</time>
      </trkpt>
      <trkpt lat="45.32145" lon="0.43136">
        <ele>153</ele>
        <time>2016-10-23T13:13:01Z</time>
      </trkpt>
      <trkpt lat="45.32128" lon="0.43194">
        <ele>158</ele>
        <time>2016-10-23T13:13:31Z</time>
      </trkpt>
      <trkpt lat="45.32105" lon="0.43236">
        <ele>163</ele>
        <time>2016-10-23T13:14:00Z</time>
      </trkpt>
      <trkpt lat="45.32092" lon="0.4327">
        <ele>164</ele>
        <time>2016-10-23T13:14:30Z</time>
      </trkpt>
      <trkpt lat="45.32078" lon="0.43319">
        <ele>170</ele>
        <time>2016-10-23T13:14:59Z</time>
      </trkpt>
      <trkpt lat="45.32062" lon="0.43361">
        <ele>174</ele>
        <time>2016-10-23T13:15:28Z</time>
      </trkpt>
      <trkpt lat="45.32049" lon="0.43409">
        <ele>174</ele>
        <time>2016-10-23T13:15:57Z</time>
      </trkpt>
      <trkpt lat="45.32039" lon="0.43448">
        <ele>175</ele>
        <time>2016-10-23T13:16:26Z</time>
      </trkpt>
      <trkpt lat="45.32029" lon="0.43491">
        <ele>177</ele>
        <time>2016-10-23T13:16:56Z</time>
      </trkpt>
      <trkpt lat="45.3202" lon="0.4352">
        <ele>175</ele>
        <time>2016-10-23T13:17:25Z</time>
      </trkpt>
      <trkpt lat="45.32004" lon="0.43513">
        <ele>172</ele>
        <time>2016-10-23T13:21:04Z</time>
      </trkpt>
      <trkpt lat="45.3198" lon="0.43498">
        <ele>173</ele>
        <time>2016-10-23T13:21:34Z</time>
      </trkpt>
      <trkpt lat="45.31958" lon="0.43482">
        <ele>170</ele>
        <time>2016-10-23T13:22:03Z</time>
      </trkpt>
      <trkpt lat="45.31929" lon="0.43461">
        <ele>165</ele>
        <time>2016-10-23T13:22:33Z</time>
      </trkpt>
      <trkpt lat="45.31904" lon="0.43438">
        <ele>161</ele>
        <time>2016-10-23T13:23:02Z</time>
      </trkpt>
      <trkpt lat="45.3188" lon="0.43414">
        <ele>162</ele>
        <time>2016-10-23T13:23:31Z</time>
      </trkpt>
      <trkpt lat="45.31855" lon="0.4339">
        <ele>161</ele>
        <time>2016-10-23T13:24:00Z</time>
      </trkpt>
      <trkpt lat="45.31824" lon="0.43374">
        <ele>160</ele>
        <time>2016-10-23T13:24:29Z</time>
      </trkpt>
      <trkpt lat="45.31794" lon="0.43362">
        <ele>156</ele>
        <time>2016-10-23T13:24:58Z</time>
      </trkpt>
      <trkpt lat="45.31763" lon="0.43351">
        <ele>154</ele>
        <time>2016-10-23T13:25:27Z</time>
      </trkpt>
      <trkpt lat="45.31733" lon="0.43345">
        <ele>154</ele>
        <time>2016-10-23T13:25:56Z</time>
      </trkpt>
      <trkpt lat="45.31699" lon="0.4335">
        <ele>157</ele>
        <time>2016-10-23T13:26:26Z</time>
      </trkpt>
      <trkpt lat="45.31672" lon="0.43367">
        <ele>158</ele>
        <time>2016-10-23T13:26:55Z</time>
      </trkpt>
      <trkpt lat="45.31641" lon="0.4338">
        <ele>147</ele>
        <time>2016-10-23T13:27:25Z</time>
      </trkpt>
      <trkpt lat="45.31621" lon="0.43414">
        <ele>148</ele>
        <time>2016-10-23T13:27:54Z</time>
      </trkpt>
      <trkpt lat="45.31591" lon="0.4345">
        <ele>143</ele>
        <time>2016-10-23T13:28:23Z</time>
      </trkpt>
      <trkpt lat="45.31567" lon="0.43485">
        <ele>139</ele>
        <time>2016-10-23T13:28:52Z</time>
      </trkpt>
      <trkpt lat="45.31545" lon="0.43464">
        <ele>133</ele>
        <time>2016-10-23T13:29:21Z</time>
      </trkpt>
      <trkpt lat="45.31523" lon="0.43432">
        <ele>136</ele>
        <time>2016-10-23T13:29:50Z</time>
      </trkpt>
      <trkpt lat="45.31491" lon="0.43408">
        <ele>140</ele>
        <time>2016-10-23T13:30:20Z</time>
      </trkpt>
      <trkpt lat="45.31463" lon="0.43394">
        <ele>143</ele>
        <time>2016-10-23T13:30:49Z</time>
      </trkpt>
      <trkpt lat="45.31439" lon="0.43385">
        <ele>140</ele>
        <time>2016-10-23T13:31:18Z</time>
      </trkpt>
      <trkpt lat="45.31405" lon="0.4338">
        <ele>141</ele>
        <time>2016-10-23T13:31:48Z</time>
      </trkpt>
      <trkpt lat="45.31369" lon="0.43374">
        <ele>141</ele>
        <time>2016-10-23T13:32:17Z</time>
      </trkpt>
      <trkpt lat="45.31339" lon="0.43361">
        <ele>142</ele>
        <time>2016-10-23T13:32:46Z</time>
      </trkpt>
      <trkpt lat="45.31321" lon="0.43371">
        <ele>130</ele>
        <time>2016-10-23T13:33:15Z</time>
      </trkpt>
      <trkpt lat="45.31318" lon="0.43346">
        <ele>128</ele>
        <time>2016-10-23T13:34:56Z</time>
      </trkpt>
      <trkpt lat="45.31325" lon="0.43303">
        <ele>125</ele>
        <time>2016-10-23T13:35:25Z</time>
      </trkpt>
      <trkpt lat="45.3133" lon="0.43258">
        <ele>129</ele>
        <time>2016-10-23T13:35:54Z</time>
      </trkpt>
      <trkpt lat="45.31336" lon="0.43211">
        <ele>130</ele>
        <time>2016-10-23T13:36:23Z</time>
      </trkpt>
      <trkpt lat="45.31338" lon="0.43164">
        <ele>133</ele>
        <time>2016-10-23T13:36:52Z</time>
      </trkpt>
      <trkpt lat="45.31341" lon="0.4312">
        <ele>136</ele>
        <time>2016-10-23T13:37:21Z</time>
      </trkpt>
      <trkpt lat="45.31346" lon="0.43078">
        <ele>141</ele>
        <time>2016-10-23T13:37:50Z</time>
      </trkpt>
      <trkpt lat="45.31348" lon="0.4303">
        <ele>140</ele>
        <time>2016-10-23T13:38:20Z</time>
      </trkpt>
      <trkpt lat="45.3135" lon="0.42991">
        <ele>141</ele>
        <time>2016-10-23T13:38:49Z</time>
      </trkpt>
      <trkpt lat="45.31351" lon="0.42945">
        <ele>142</ele>
        <time>2016-10-23T13:39:18Z</time>
      </trkpt>
      <trkpt lat="45.31352" lon="0.42903">
        <ele>144</ele>
        <time>2016-10-23T13:39:47Z</time>
      </trkpt>
      <trkpt lat="45.31354" lon="0.42861">
        <ele>144</ele>
        <time>2016-10-23T13:40:17Z</time>
      </trkpt>
      <trkpt lat="45.31355" lon="0.4282">
        <ele>148</ele>
        <time>2016-10-23T13:40:46Z</time>
      </trkpt>
      <trkpt lat="45.31357" lon="0.42783">
        <ele>151</ele>
        <time>2016-10-23T13:41:15Z</time>
      </trkpt>
      <trkpt lat="45.31358" lon="0.42743">
        <ele>154</ele>
        <time>2016-10-23T13:41:44Z</time>
      </trkpt>
      <trkpt lat="45.3136" lon="0.42703">
        <ele>156</ele>
        <time>2016-10-23T13:42:14Z</time>
      </trkpt>
      <trkpt lat="45.3136" lon="0.42669">
        <ele>159</ele>
        <time>2016-10-23T13:42:43Z</time>
      </trkpt>
      <trkpt lat="45.31349" lon="0.42633">
        <ele>161</ele>
        <time>2016-10-23T13:43:13Z</time>
      </trkpt>
      <trkpt lat="45.31338" lon="0.42599">
        <ele>163</ele>
        <time>2016-10-23T13:43:42Z</time>
      </trkpt>
      <trkpt lat="45.31325" lon="0.42565">
        <ele>166</ele>
        <time>2016-10-23T13:44:11Z</time>
      </trkpt>
      <trkpt lat="45.31315" lon="0.42532">
        <ele>169</ele>
        <time>2016-10-23T13:44:40Z</time>
      </trkpt>
      <trkpt lat="45.31298" lon="0.42498">
        <ele>167</ele>
        <time>2016-10-23T13:45:09Z</time>
      </trkpt>
      <trkpt lat="45.31269" lon="0.42486">
        <ele>172</ele>
        <time>2016-10-23T13:45:38Z</time>
      </trkpt>
      <trkpt lat="45.31244" lon="0.42472">
        <ele>179</ele>
        <time>2016-10-23T13:46:08Z</time>
      </trkpt>
      <trkpt lat="45.31219" lon="0.4245">
        <ele>173</ele>
        <time>2016-10-23T13:46:38Z</time>
      </trkpt>
      <trkpt lat="45.31233" lon="0.42417">
        <ele>173</ele>
        <time>2016-10-23T13:47:08Z</time>
      </trkpt>
      <trkpt lat="45.3124" lon="0.42394">
        <ele>174</ele>
        <time>2016-10-23T13:48:29Z</time>
      </trkpt>
      <trkpt lat="45.3125" lon="0.42366">
        <ele>171</ele>
        <time>2016-10-23T13:48:59Z</time>
      </trkpt>
      <trkpt lat="45.3126" lon="0.42327">
        <ele>169</ele>
        <time>2016-10-23T13:49:28Z</time>
      </trkpt>
      <trkpt lat="45.31273" lon="0.42296">
        <ele>161</ele>
        <time>2016-10-23T13:49:58Z</time>
      </trkpt>
      <trkpt lat="45.3129" lon="0.42283">
        <ele>158</ele>
        <time>2016-10-23T13:50:28Z</time>
      </trkpt>
      <trkpt lat="45.31304" lon="0.42256">
        <ele>154</ele>
        <time>2016-10-23T13:50:57Z</time>
      </trkpt>
      <trkpt lat="45.31297" lon="0.4223">
        <ele>147</ele>
        <time>2016-10-23T13:51:27Z</time>
      </trkpt>
      <trkpt lat="45.31273" lon="0.42215">
        <ele>148</ele>
        <time>2016-10-23T13:51:57Z</time>
      </trkpt>
      <trkpt lat="45.31252" lon="0.42193">
        <ele>145</ele>
        <time>2016-10-23T13:52:26Z</time>
      </trkpt>
      <trkpt lat="45.31265" lon="0.42171">
        <ele>144</ele>
        <time>2016-10-23T13:52:56Z</time>
      </trkpt>
      <trkpt lat="45.31282" lon="0.4214">
        <ele>133</ele>
        <time>2016-10-23T13:53:25Z</time>
      </trkpt>
      <trkpt lat="45.31294" lon="0.421">
        <ele>132</ele>
        <time>2016-10-23T13:53:54Z</time>
      </trkpt>
      <trkpt lat="45.31261" lon="0.42077">
        <ele>131</ele>
        <time>2016-10-23T13:54:24Z</time>
      </trkpt>
      <trkpt lat="45.31228" lon="0.42058">
        <ele>128</ele>
        <time>2016-10-23T13:54:53Z</time>
      </trkpt>
      <trkpt lat="45.31193" lon="0.42038">
        <ele>125</ele>
        <time>2016-10-23T13:55:22Z</time>
      </trkpt>
      <trkpt lat="45.31162" lon="0.42019">
        <ele>125</ele>
        <time>2016-10-23T13:55:51Z</time>
      </trkpt>
      <trkpt lat="45.31133" lon="0.41996">
        <ele>128</ele>
        <time>2016-10-23T13:56:20Z</time>
      </trkpt>
      <trkpt lat="45.31105" lon="0.41965">
        <ele>125</ele>
        <time>2016-10-23T13:56:50Z</time>
      </trkpt>
      <trkpt lat="45.31081" lon="0.41931">
        <ele>124</ele>
        <time>2016-10-23T13:57:20Z</time>
      </trkpt>
      <trkpt lat="45.31053" lon="0.41905">
        <ele>123</ele>
        <time>2016-10-23T13:57:49Z</time>
      </trkpt>
      <trkpt lat="45.31024" lon="0.41884">
        <ele>122</ele>
        <time>2016-10-23T13:58:19Z</time>
      </trkpt>
      <trkpt lat="45.3099" lon="0.41869">
        <ele>120</ele>
        <time>2016-10-23T13:58:48Z</time>
      </trkpt>
      <trkpt lat="45.30958" lon="0.41863">
        <ele>122</ele>
        <time>2016-10-23T13:59:17Z</time>
      </trkpt>
      <trkpt lat="45.30919" lon="0.41852">
        <ele>120</ele>
        <time>2016-10-23T13:59:47Z</time>
      </trkpt>
      <trkpt lat="45.30891" lon="0.41827">
        <ele>118</ele>
        <time>2016-10-23T14:00:16Z</time>
      </trkpt>
      <trkpt lat="45.30865" lon="0.41795">
        <ele>117</ele>
        <time>2016-10-23T14:00:45Z</time>
      </trkpt>
      <trkpt lat="45.30837" lon="0.41763">
        <ele>114</ele>
        <time>2016-10-23T14:01:15Z</time>
      </trkpt>
      <trkpt lat="45.3081" lon="0.4173">
        <ele>116</ele>
        <time>2016-10-23T14:01:45Z</time>
      </trkpt>
      <trkpt lat="45.30784" lon="0.41699">
        <ele>118</ele>
        <time>2016-10-23T14:02:14Z</time>
      </trkpt>
      <trkpt lat="45.30769" lon="0.41669">
        <ele>119</ele>
        <time>2016-10-23T14:02:43Z</time>
      </trkpt>
      <trkpt lat="45.30747" lon="0.41631">
        <ele>116</ele>
        <time>2016-10-23T14:03:13Z</time>
      </trkpt>
      <trkpt lat="45.30727" lon="0.41594">
        <ele>115</ele>
        <time>2016-10-23T14:03:42Z</time>
      </trkpt>
      <trkpt lat="45.30699" lon="0.41567">
        <ele>113</ele>
        <time>2016-10-23T14:04:11Z</time>
      </trkpt>
      <trkpt lat="45.30671" lon="0.41548">
        <ele>117</ele>
        <time>2016-10-23T14:04:40Z</time>
      </trkpt>
      <trkpt lat="45.30654" lon="0.41552">
        <ele>124</ele>
        <time>2016-10-23T14:07:18Z</time>
      </trkpt>
      <trkpt lat="45.30629" lon="0.41563">
        <ele>124</ele>
        <time>2016-10-23T14:07:47Z</time>
      </trkpt>
      <trkpt lat="45.30597" lon="0.41571">
        <ele>121</ele>
        <time>2016-10-23T14:08:16Z</time>
      </trkpt>
      <trkpt lat="45.30575" lon="0.41576">
        <ele>122</ele>
        <time>2016-10-23T14:08:45Z</time>
      </trkpt>
      <trkpt lat="45.30545" lon="0.41583">
        <ele>120</ele>
        <time>2016-10-23T14:09:14Z</time>
      </trkpt>
      <trkpt lat="45.30514" lon="0.41593">
        <ele>118</ele>
        <time>2016-10-23T14:09:44Z</time>
      </trkpt>
      <trkpt lat="45.30484" lon="0.41602">
        <ele>120</ele>
        <time>2016-10-23T14:10:13Z</time>
      </trkpt>
      <trkpt lat="45.30453" lon="0.41607">
        <ele>121</ele>
        <time>2016-10-23T14:10:43Z</time>
      </trkpt>
      <trkpt lat="45.30422" lon="0.41602">
        <ele>122</ele>
        <time>2016-10-23T14:11:13Z</time>
      </trkpt>
      <trkpt lat="45.30395" lon="0.41584">
        <ele>120</ele>
        <time>2016-10-23T14:11:42Z</time>
      </trkpt>
      <trkpt lat="45.30366" lon="0.41556">
        <ele>121</ele>
        <time>2016-10-23T14:12:12Z</time>
      </trkpt>
      <trkpt lat="45.30339" lon="0.41529">
        <ele>120</ele>
        <time>2016-10-23T14:12:41Z</time>
      </trkpt>
      <trkpt lat="45.30312" lon="0.41509">
        <ele>124</ele>
        <time>2016-10-23T14:13:10Z</time>
      </trkpt>
      <trkpt lat="45.30283" lon="0.4149">
        <ele>124</ele>
        <time>2016-10-23T14:13:40Z</time>
      </trkpt>
      <trkpt lat="45.30252" lon="0.41475">
        <ele>127</ele>
        <time>2016-10-23T14:14:10Z</time>
      </trkpt>
      <trkpt lat="45.30218" lon="0.41466">
        <ele>125</ele>
        <time>2016-10-23T14:14:39Z</time>
      </trkpt>
      <trkpt lat="45.30183" lon="0.41471">
        <ele>125</ele>
        <time>2016-10-23T14:15:09Z</time>
      </trkpt>
      <trkpt lat="45.30152" lon="0.41483">
        <ele>124</ele>
        <time>2016-10-23T14:15:38Z</time>
      </trkpt>
      <trkpt lat="45.30119" lon="0.41492">
        <ele>125</ele>
        <time>2016-10-23T14:16:07Z</time>
      </trkpt>
      <trkpt lat="45.30086" lon="0.41506">
        <ele>120</ele>
        <time>2016-10-23T14:16:36Z</time>
      </trkpt>
      <trkpt lat="45.30053" lon="0.41514">
        <ele>117</ele>
        <time>2016-10-23T14:17:05Z</time>
      </trkpt>
      <trkpt lat="45.30008" lon="0.41509">
        <ele>115</ele>
        <time>2016-10-23T14:17:34Z</time>
      </trkpt>
      <trkpt lat="45.29974" lon="0.41485">
        <ele>116</ele>
        <time>2016-10-23T14:18:03Z</time>
      </trkpt>
      <trkpt lat="45.29941" lon="0.4146">
        <ele>117</ele>
        <time>2016-10-23T14:18:32Z</time>
      </trkpt>
      <trkpt lat="45.29922" lon="0.41442">
        <ele>112</ele>
        <time>2016-10-23T14:19:02Z</time>
      </trkpt>
      <trkpt lat="45.29922" lon="0.41443">
        <ele>112</ele>
        <time>2016-10-23T14:19:27Z</time>
      </trkpt>
      <trkpt lat="45.29922" lon="0.41443">
        <ele>112</ele>
        <time>2016-10-23T14:19:28Z</time>
      </trkpt>
    </trkseg>
  </trk>
</gpx>